sensor_id;sensor_type;location;lat;lon;timestamp;P1;durP1;ratioP1;P2;durP2;ratioP2
31043;SDS011;17710;52.520;13.352;2023-07-02T00:01:21;3.08;;;1.20;;
31043;SDS011;17710;52.520;13.352;2023-07-02T00:03:48;1.52;;;1.30;;
31043;SDS011;17710;52.520;13.352;2023-07-02T00:06:15;2.25;;;1.05;;
31043;SDS011;17710;52.520;13.352;2023-07-02T00:08:42;1.23;;;1.13;;
31043;SDS011;17710;52.520;13.352;2023-07-02T00:11:08;1.05;;;0.98;;
31043;SDS011;17710;52.520;13.352;2023-07-02T00:13:37;1.55;;;1.20;;
31043;SDS011;17710;52.520;13.352;2023-07-02T00:16:04;1.55;;;1.15;;
31043;SDS011;17710;52.520;13.352;2023-07-02T00:18:30;2.08;;;1.13;;
31043;SDS011;17710;52.520;13.352;2023-07-02T00:20:59;3.92;;;1.10;;
31043;SDS011;17710;52.520;13.352;2023-07-02T00:23:28;2.65;;;1.20;;
31043;SDS011;17710;52.520;13.352;2023-07-02T00:25:54;1.80;;;1.50;;
31043;SDS011;17710;52.520;13.352;2023-07-02T00:28:21;1.55;;;1.10;;
31043;SDS011;17710;52.520;13.352;2023-07-02T00:30:47;16.95;;;15.18;;
31043;SDS011;17710;52.520;13.352;2023-07-02T00:33:13;5.75;;;3.35;;
31043;SDS011;17710;52.520;13.352;2023-07-02T00:35:40;4.45;;;4.03;;
31043;SDS011;17710;52.520;13.352;2023-07-02T00:38:07;3.92;;;1.83;;
31043;SDS011;17710;52.520;13.352;2023-07-02T00:40:34;3.83;;;1.70;;
31043;SDS011;17710;52.520;13.352;2023-07-02T00:43:02;3.20;;;2.90;;
31043;SDS011;17710;52.520;13.352;2023-07-02T00:45:28;6.68;;;4.20;;
31043;SDS011;17710;52.520;13.352;2023-07-02T00:47:56;3.17;;;2.00;;
31043;SDS011;17710;52.520;13.352;2023-07-02T00:50:23;2.63;;;2.40;;
31043;SDS011;17710;52.520;13.352;2023-07-02T00:52:51;3.30;;;2.00;;
31043;SDS011;17710;52.520;13.352;2023-07-02T00:55:19;3.50;;;2.20;;
31043;SDS011;17710;52.520;13.352;2023-07-02T00:57:47;4.97;;;2.78;;
31043;SDS011;17710;52.520;13.352;2023-07-02T01:00:13;8.57;;;4.63;;
31043;SDS011;17710;52.520;13.352;2023-07-02T01:02:40;2.65;;;2.42;;
31043;SDS011;17710;52.520;13.352;2023-07-02T01:05:09;4.70;;;2.28;;
31043;SDS011;17710;52.520;13.352;2023-07-02T01:07:35;5.03;;;2.50;;
31043;SDS011;17710;52.520;13.352;2023-07-02T01:10:02;3.85;;;2.70;;
31043;SDS011;17710;52.520;13.352;2023-07-02T01:12:28;7.40;;;3.22;;
31043;SDS011;17710;52.520;13.352;2023-07-02T01:14:56;3.28;;;2.80;;
31043;SDS011;17710;52.520;13.352;2023-07-02T01:17:26;3.83;;;2.92;;
31043;SDS011;17710;52.520;13.352;2023-07-02T01:20:08;2.38;;;2.17;;
31043;SDS011;17710;52.520;13.352;2023-07-02T01:22:35;3.10;;;2.80;;
31043;SDS011;17710;52.520;13.352;2023-07-02T01:25:03;3.28;;;2.80;;
31043;SDS011;17710;52.520;13.352;2023-07-02T01:27:30;3.85;;;2.88;;
31043;SDS011;17710;52.520;13.352;2023-07-02T01:29:57;6.35;;;3.13;;
31043;SDS011;17710;52.520;13.352;2023-07-02T01:32:24;3.15;;;2.63;;
31043;SDS011;17710;52.520;13.352;2023-07-02T01:34:51;3.40;;;3.15;;
31043;SDS011;17710;52.520;13.352;2023-07-02T01:37:19;5.20;;;3.50;;
31043;SDS011;17710;52.520;13.352;2023-07-02T01:39:46;4.13;;;3.55;;
31043;SDS011;17710;52.520;13.352;2023-07-02T01:42:13;3.58;;;3.25;;
31043;SDS011;17710;52.520;13.352;2023-07-02T01:44:41;5.38;;;3.50;;
31043;SDS011;17710;52.520;13.352;2023-07-02T01:47:07;3.33;;;3.03;;
31043;SDS011;17710;52.520;13.352;2023-07-02T01:49:34;5.63;;;3.35;;
31043;SDS011;17710;52.520;13.352;2023-07-02T01:52:01;5.72;;;3.40;;
31043;SDS011;17710;52.520;13.352;2023-07-02T01:54:29;7.30;;;3.97;;
31043;SDS011;17710;52.520;13.352;2023-07-02T01:56:56;4.30;;;3.90;;
31043;SDS011;17710;52.520;13.352;2023-07-02T01:59:23;5.82;;;3.90;;
31043;SDS011;17710;52.520;13.352;2023-07-02T02:01:49;6.20;;;3.70;;
31043;SDS011;17710;52.520;13.352;2023-07-02T02:04:16;4.25;;;3.85;;
31043;SDS011;17710;52.520;13.352;2023-07-02T02:06:42;6.55;;;4.32;;
31043;SDS011;17710;52.520;13.352;2023-07-02T02:09:09;5.00;;;4.00;;
31043;SDS011;17710;52.520;13.352;2023-07-02T02:11:38;7.20;;;5.03;;
31043;SDS011;17710;52.520;13.352;2023-07-02T02:14:05;5.07;;;3.92;;
31043;SDS011;17710;52.520;13.352;2023-07-02T02:16:32;4.75;;;3.97;;
31043;SDS011;17710;52.520;13.352;2023-07-02T02:18:59;9.82;;;4.53;;
31043;SDS011;17710;52.520;13.352;2023-07-02T02:21:26;5.32;;;3.92;;
31043;SDS011;17710;52.520;13.352;2023-07-02T02:23:53;5.35;;;4.00;;
31043;SDS011;17710;52.520;13.352;2023-07-02T02:26:20;4.22;;;3.63;;
31043;SDS011;17710;52.520;13.352;2023-07-02T02:28:48;5.57;;;3.95;;
31043;SDS011;17710;52.520;13.352;2023-07-02T02:31:15;17.90;;;4.47;;
31043;SDS011;17710;52.520;13.352;2023-07-02T02:33:41;6.80;;;3.55;;
31043;SDS011;17710;52.520;13.352;2023-07-02T02:36:07;5.90;;;3.70;;
31043;SDS011;17710;52.520;13.352;2023-07-02T02:38:34;5.25;;;3.55;;
31043;SDS011;17710;52.520;13.352;2023-07-02T02:41:02;4.10;;;2.70;;
31043;SDS011;17710;52.520;13.352;2023-07-02T02:43:28;3.83;;;3.20;;
31043;SDS011;17710;52.520;13.352;2023-07-02T02:45:56;5.97;;;3.80;;
31043;SDS011;17710;52.520;13.352;2023-07-02T02:48:22;5.32;;;3.40;;
31043;SDS011;17710;52.520;13.352;2023-07-02T02:50:49;5.07;;;3.28;;
31043;SDS011;17710;52.520;13.352;2023-07-02T02:53:15;6.25;;;3.47;;
31043;SDS011;17710;52.520;13.352;2023-07-02T02:55:41;7.30;;;3.30;;
31043;SDS011;17710;52.520;13.352;2023-07-02T02:58:08;5.30;;;3.17;;
31043;SDS011;17710;52.520;13.352;2023-07-02T03:00:34;4.72;;;3.22;;
31043;SDS011;17710;52.520;13.352;2023-07-02T03:03:02;9.25;;;3.72;;
31043;SDS011;17710;52.520;13.352;2023-07-02T03:05:28;3.85;;;3.38;;
31043;SDS011;17710;52.520;13.352;2023-07-02T03:07:55;7.95;;;3.55;;
31043;SDS011;17710;52.520;13.352;2023-07-02T03:10:21;6.88;;;4.30;;
31043;SDS011;17710;52.520;13.352;2023-07-02T03:12:47;7.18;;;3.50;;
31043;SDS011;17710;52.520;13.352;2023-07-02T03:15:14;5.30;;;3.20;;
31043;SDS011;17710;52.520;13.352;2023-07-02T03:17:42;5.90;;;3.45;;
31043;SDS011;17710;52.520;13.352;2023-07-02T03:20:10;4.38;;;3.08;;
31043;SDS011;17710;52.520;13.352;2023-07-02T03:22:37;5.70;;;2.95;;
31043;SDS011;17710;52.520;13.352;2023-07-02T03:25:03;6.25;;;2.90;;
31043;SDS011;17710;52.520;13.352;2023-07-02T03:27:30;7.00;;;3.17;;
31043;SDS011;17710;52.520;13.352;2023-07-02T03:29:56;3.50;;;3.20;;
31043;SDS011;17710;52.520;13.352;2023-07-02T03:32:23;4.72;;;3.03;;
31043;SDS011;17710;52.520;13.352;2023-07-02T03:34:49;3.40;;;3.10;;
31043;SDS011;17710;52.520;13.352;2023-07-02T03:37:18;8.20;;;3.30;;
31043;SDS011;17710;52.520;13.352;2023-07-02T03:39:44;7.40;;;3.10;;
31043;SDS011;17710;52.520;13.352;2023-07-02T03:42:10;6.30;;;2.72;;
31043;SDS011;17710;52.520;13.352;2023-07-02T03:44:37;5.60;;;2.97;;
31043;SDS011;17710;52.520;13.352;2023-07-02T03:47:03;6.57;;;2.78;;
31043;SDS011;17710;52.520;13.352;2023-07-02T03:49:30;4.70;;;2.60;;
31043;SDS011;17710;52.520;13.352;2023-07-02T03:51:56;9.63;;;2.70;;
31043;SDS011;17710;52.520;13.352;2023-07-02T03:54:24;4.13;;;2.75;;
31043;SDS011;17710;52.520;13.352;2023-07-02T03:56:50;3.30;;;2.55;;
31043;SDS011;17710;52.520;13.352;2023-07-02T03:59:17;4.20;;;2.45;;
31043;SDS011;17710;52.520;13.352;2023-07-02T04:01:43;2.38;;;2.08;;
31043;SDS011;17710;52.520;13.352;2023-07-02T04:04:09;5.43;;;2.42;;
31043;SDS011;17710;52.520;13.352;2023-07-02T04:06:36;5.53;;;2.65;;
31043;SDS011;17710;52.520;13.352;2023-07-02T04:09:02;6.88;;;2.13;;
31043;SDS011;17710;52.520;13.352;2023-07-02T04:11:30;5.60;;;2.50;;
31043;SDS011;17710;52.520;13.352;2023-07-02T04:13:57;3.92;;;2.60;;
31043;SDS011;17710;52.520;13.352;2023-07-02T04:16:23;4.20;;;2.90;;
31043;SDS011;17710;52.520;13.352;2023-07-02T04:18:49;5.30;;;2.65;;
31043;SDS011;17710;52.520;13.352;2023-07-02T04:21:15;5.78;;;2.15;;
31043;SDS011;17710;52.520;13.352;2023-07-02T04:23:42;5.18;;;2.20;;
31043;SDS011;17710;52.520;13.352;2023-07-02T04:26:08;9.15;;;2.70;;
31043;SDS011;17710;52.520;13.352;2023-07-02T04:28:36;7.93;;;2.30;;
31043;SDS011;17710;52.520;13.352;2023-07-02T04:31:02;7.07;;;2.75;;
31043;SDS011;17710;52.520;13.352;2023-07-02T04:33:29;3.67;;;2.10;;
31043;SDS011;17710;52.520;13.352;2023-07-02T04:36:01;2.78;;;2.10;;
31043;SDS011;17710;52.520;13.352;2023-07-02T04:38:27;5.57;;;2.30;;
31043;SDS011;17710;52.520;13.352;2023-07-02T04:40:53;7.65;;;2.20;;
31043;SDS011;17710;52.520;13.352;2023-07-02T04:43:22;5.50;;;2.38;;
31043;SDS011;17710;52.520;13.352;2023-07-02T04:45:50;4.53;;;2.28;;
31043;SDS011;17710;52.520;13.352;2023-07-02T04:48:16;3.65;;;2.25;;
31043;SDS011;17710;52.520;13.352;2023-07-02T04:50:42;2.40;;;2.00;;
31043;SDS011;17710;52.520;13.352;2023-07-02T04:53:09;4.55;;;2.22;;
31043;SDS011;17710;52.520;13.352;2023-07-02T04:55:35;4.25;;;2.40;;
31043;SDS011;17710;52.520;13.352;2023-07-02T04:58:02;5.22;;;2.33;;
31043;SDS011;17710;52.520;13.352;2023-07-02T05:00:28;2.72;;;1.90;;
31043;SDS011;17710;52.520;13.352;2023-07-02T05:02:55;4.63;;;2.08;;
31043;SDS011;17710;52.520;13.352;2023-07-02T05:05:22;3.10;;;1.85;;
31043;SDS011;17710;52.520;13.352;2023-07-02T05:07:48;2.35;;;1.52;;
31043;SDS011;17710;52.520;13.352;2023-07-02T05:10:15;4.68;;;1.83;;
31043;SDS011;17710;52.520;13.352;2023-07-02T05:12:41;3.88;;;1.60;;
31043;SDS011;17710;52.520;13.352;2023-07-02T05:15:08;6.60;;;1.60;;
31043;SDS011;17710;52.520;13.352;2023-07-02T05:17:34;2.60;;;1.65;;
31043;SDS011;17710;52.520;13.352;2023-07-02T05:20:03;5.95;;;1.70;;
31043;SDS011;17710;52.520;13.352;2023-07-02T05:22:30;7.68;;;2.20;;
31043;SDS011;17710;52.520;13.352;2023-07-02T05:24:56;4.13;;;1.60;;
31043;SDS011;17710;52.520;13.352;2023-07-02T05:27:22;3.30;;;1.73;;
31043;SDS011;17710;52.520;13.352;2023-07-02T05:29:49;5.10;;;1.73;;
31043;SDS011;17710;52.520;13.352;2023-07-02T05:32:15;4.07;;;1.92;;
31043;SDS011;17710;52.520;13.352;2023-07-02T05:34:42;5.18;;;1.90;;
31043;SDS011;17710;52.520;13.352;2023-07-02T05:37:13;3.95;;;1.75;;
31043;SDS011;17710;52.520;13.352;2023-07-02T05:39:41;3.67;;;2.08;;
31043;SDS011;17710;52.520;13.352;2023-07-02T05:42:08;7.03;;;2.20;;
31043;SDS011;17710;52.520;13.352;2023-07-02T05:44:34;5.38;;;1.98;;
31043;SDS011;17710;52.520;13.352;2023-07-02T05:47:01;7.43;;;2.42;;
31043;SDS011;17710;52.520;13.352;2023-07-02T05:49:28;3.42;;;1.90;;
31043;SDS011;17710;52.520;13.352;2023-07-02T05:51:55;3.28;;;1.67;;
31043;SDS011;17710;52.520;13.352;2023-07-02T05:54:23;6.90;;;2.13;;
31043;SDS011;17710;52.520;13.352;2023-07-02T05:56:49;3.38;;;1.90;;
31043;SDS011;17710;52.520;13.352;2023-07-02T05:59:17;9.38;;;1.92;;
31043;SDS011;17710;52.520;13.352;2023-07-02T06:01:44;6.05;;;2.30;;
31043;SDS011;17710;52.520;13.352;2023-07-02T06:04:11;2.65;;;1.80;;
31043;SDS011;17710;52.520;13.352;2023-07-02T06:06:37;9.30;;;2.50;;
31043;SDS011;17710;52.520;13.352;2023-07-02T06:09:04;7.53;;;2.40;;
31043;SDS011;17710;52.520;13.352;2023-07-02T06:11:32;6.82;;;2.35;;
31043;SDS011;17710;52.520;13.352;2023-07-02T06:13:59;5.45;;;1.95;;
31043;SDS011;17710;52.520;13.352;2023-07-02T06:16:26;6.28;;;2.28;;
31043;SDS011;17710;52.520;13.352;2023-07-02T06:18:52;4.03;;;1.90;;
31043;SDS011;17710;52.520;13.352;2023-07-02T06:21:19;5.85;;;1.90;;
31043;SDS011;17710;52.520;13.352;2023-07-02T06:23:46;7.97;;;2.13;;
31043;SDS011;17710;52.520;13.352;2023-07-02T06:26:13;5.28;;;2.10;;
31043;SDS011;17710;52.520;13.352;2023-07-02T06:28:41;8.93;;;2.17;;
31043;SDS011;17710;52.520;13.352;2023-07-02T06:31:07;5.13;;;2.00;;
31043;SDS011;17710;52.520;13.352;2023-07-02T06:33:34;3.40;;;1.90;;
31043;SDS011;17710;52.520;13.352;2023-07-02T06:36:04;4.38;;;2.10;;
31043;SDS011;17710;52.520;13.352;2023-07-02T06:38:31;5.03;;;2.25;;
31043;SDS011;17710;52.520;13.352;2023-07-02T06:40:57;6.55;;;1.90;;
31043;SDS011;17710;52.520;13.352;2023-07-02T06:43:23;8.30;;;1.98;;
31043;SDS011;17710;52.520;13.352;2023-07-02T06:45:51;4.93;;;2.03;;
31043;SDS011;17710;52.520;13.352;2023-07-02T06:48:17;2.63;;;2.13;;
31043;SDS011;17710;52.520;13.352;2023-07-02T06:50:49;4.93;;;2.15;;
31043;SDS011;17710;52.520;13.352;2023-07-02T06:53:15;3.78;;;2.05;;
31043;SDS011;17710;52.520;13.352;2023-07-02T06:55:42;6.25;;;2.10;;
31043;SDS011;17710;52.520;13.352;2023-07-02T06:58:08;4.78;;;2.00;;
31043;SDS011;17710;52.520;13.352;2023-07-02T07:00:35;4.13;;;1.88;;
31043;SDS011;17710;52.520;13.352;2023-07-02T07:03:03;6.40;;;2.50;;
31043;SDS011;17710;52.520;13.352;2023-07-02T07:05:29;4.60;;;2.40;;
31043;SDS011;17710;52.520;13.352;2023-07-02T07:07:56;3.95;;;2.15;;
31043;SDS011;17710;52.520;13.352;2023-07-02T07:10:22;6.70;;;2.35;;
31043;SDS011;17710;52.520;13.352;2023-07-02T07:12:48;5.03;;;2.20;;
31043;SDS011;17710;52.520;13.352;2023-07-02T07:15:15;3.72;;;1.92;;
31043;SDS011;17710;52.520;13.352;2023-07-02T07:17:41;5.82;;;2.10;;
31043;SDS011;17710;52.520;13.352;2023-07-02T07:20:09;6.10;;;2.60;;
31043;SDS011;17710;52.520;13.352;2023-07-02T07:22:36;5.85;;;2.25;;
31043;SDS011;17710;52.520;13.352;2023-07-02T07:25:03;3.95;;;2.25;;
31043;SDS011;17710;52.520;13.352;2023-07-02T07:27:30;5.82;;;2.55;;
31043;SDS011;17710;52.520;13.352;2023-07-02T07:29:56;7.25;;;2.17;;
31043;SDS011;17710;52.520;13.352;2023-07-02T07:32:22;4.40;;;2.20;;
31043;SDS011;17710;52.520;13.352;2023-07-02T07:34:48;6.40;;;2.70;;
31043;SDS011;17710;52.520;13.352;2023-07-02T07:37:17;2.50;;;1.92;;
31043;SDS011;17710;52.520;13.352;2023-07-02T07:39:43;6.75;;;2.40;;
31043;SDS011;17710;52.520;13.352;2023-07-02T07:42:09;4.88;;;1.90;;
31043;SDS011;17710;52.520;13.352;2023-07-02T07:44:36;6.03;;;2.10;;
31043;SDS011;17710;52.520;13.352;2023-07-02T07:47:02;3.83;;;2.08;;
31043;SDS011;17710;52.520;13.352;2023-07-02T07:49:29;8.73;;;2.40;;
31043;SDS011;17710;52.520;13.352;2023-07-02T07:51:55;5.68;;;2.30;;
31043;SDS011;17710;52.520;13.352;2023-07-02T07:54:23;3.95;;;2.25;;
31043;SDS011;17710;52.520;13.352;2023-07-02T07:56:49;4.88;;;2.20;;
31043;SDS011;17710;52.520;13.352;2023-07-02T07:59:16;8.68;;;2.08;;
31043;SDS011;17710;52.520;13.352;2023-07-02T08:01:42;2.80;;;2.17;;
31043;SDS011;17710;52.520;13.352;2023-07-02T08:04:09;4.03;;;2.00;;
31043;SDS011;17710;52.520;13.352;2023-07-02T08:06:35;3.47;;;2.42;;
31043;SDS011;17710;52.520;13.352;2023-07-02T08:09:01;5.80;;;2.00;;
31043;SDS011;17710;52.520;13.352;2023-07-02T08:11:30;4.20;;;2.10;;
31043;SDS011;17710;52.520;13.352;2023-07-02T08:13:57;5.85;;;2.20;;
31043;SDS011;17710;52.520;13.352;2023-07-02T08:16:23;7.35;;;2.33;;
31043;SDS011;17710;52.520;13.352;2023-07-02T08:18:50;14.57;;;3.17;;
31043;SDS011;17710;52.520;13.352;2023-07-02T08:21:16;6.57;;;2.60;;
31043;SDS011;17710;52.520;13.352;2023-07-02T08:23:42;6.45;;;2.38;;
31043;SDS011;17710;52.520;13.352;2023-07-02T08:26:09;5.82;;;2.53;;
31043;SDS011;17710;52.520;13.352;2023-07-02T08:28:38;4.60;;;2.55;;
31043;SDS011;17710;52.520;13.352;2023-07-02T08:31:05;3.72;;;2.15;;
31043;SDS011;17710;52.520;13.352;2023-07-02T08:33:31;4.72;;;2.55;;
31043;SDS011;17710;52.520;13.352;2023-07-02T08:35:58;7.93;;;2.58;;
31043;SDS011;17710;52.520;13.352;2023-07-02T08:38:25;4.18;;;2.15;;
31043;SDS011;17710;52.520;13.352;2023-07-02T08:40:52;6.40;;;2.85;;
31043;SDS011;17710;52.520;13.352;2023-07-02T08:43:18;6.63;;;2.70;;
31043;SDS011;17710;52.520;13.352;2023-07-02T08:45:46;6.30;;;2.85;;
31043;SDS011;17710;52.520;13.352;2023-07-02T08:48:12;5.63;;;2.45;;
31043;SDS011;17710;52.520;13.352;2023-07-02T08:50:39;4.75;;;2.58;;
31043;SDS011;17710;52.520;13.352;2023-07-02T08:53:06;4.78;;;2.80;;
31043;SDS011;17710;52.520;13.352;2023-07-02T08:55:32;6.10;;;2.85;;
31043;SDS011;17710;52.520;13.352;2023-07-02T08:57:58;6.15;;;3.13;;
31043;SDS011;17710;52.520;13.352;2023-07-02T09:00:25;6.80;;;2.88;;
31043;SDS011;17710;52.520;13.352;2023-07-02T09:02:53;7.30;;;3.53;;
31043;SDS011;17710;52.520;13.352;2023-07-02T09:05:19;7.10;;;3.10;;
31043;SDS011;17710;52.520;13.352;2023-07-02T09:07:46;6.80;;;3.33;;
31043;SDS011;17710;52.520;13.352;2023-07-02T09:10:25;7.25;;;2.90;;
31043;SDS011;17710;52.520;13.352;2023-07-02T09:13:01;6.05;;;3.28;;
31043;SDS011;17710;52.520;13.352;2023-07-02T09:15:29;6.55;;;3.53;;
31043;SDS011;17710;52.520;13.352;2023-07-02T09:18:02;8.63;;;3.30;;
31043;SDS011;17710;52.520;13.352;2023-07-02T09:20:32;11.25;;;3.58;;
31043;SDS011;17710;52.520;13.352;2023-07-02T09:22:58;9.77;;;3.42;;
31043;SDS011;17710;52.520;13.352;2023-07-02T09:25:33;11.10;;;4.10;;
31043;SDS011;17710;52.520;13.352;2023-07-02T09:27:59;8.50;;;3.50;;
31043;SDS011;17710;52.520;13.352;2023-07-02T09:30:26;7.60;;;4.28;;
31043;SDS011;17710;52.520;13.352;2023-07-02T09:32:53;11.13;;;4.20;;
31043;SDS011;17710;52.520;13.352;2023-07-02T09:35:21;11.55;;;4.07;;
31043;SDS011;17710;52.520;13.352;2023-07-02T09:37:47;9.80;;;4.32;;
31043;SDS011;17710;52.520;13.352;2023-07-02T09:40:14;9.35;;;3.60;;
31043;SDS011;17710;52.520;13.352;2023-07-02T09:42:43;12.48;;;4.70;;
31043;SDS011;17710;52.520;13.352;2023-07-02T09:45:15;11.05;;;4.40;;
31043;SDS011;17710;52.520;13.352;2023-07-02T09:47:42;9.00;;;4.35;;
31043;SDS011;17710;52.520;13.352;2023-07-02T09:50:12;11.77;;;4.90;;
31043;SDS011;17710;52.520;13.352;2023-07-02T09:52:43;11.77;;;5.15;;
31043;SDS011;17710;52.520;13.352;2023-07-02T09:55:11;11.15;;;5.45;;
31043;SDS011;17710;52.520;13.352;2023-07-02T09:57:38;10.90;;;4.57;;
31043;SDS011;17710;52.520;13.352;2023-07-02T10:00:06;14.90;;;5.22;;
31043;SDS011;17710;52.520;13.352;2023-07-02T10:02:33;12.38;;;4.90;;
31043;SDS011;17710;52.520;13.352;2023-07-02T10:05:01;10.52;;;5.07;;
31043;SDS011;17710;52.520;13.352;2023-07-02T10:07:28;13.02;;;5.35;;
31043;SDS011;17710;52.520;13.352;2023-07-02T10:09:56;16.63;;;5.55;;
31043;SDS011;17710;52.520;13.352;2023-07-02T10:12:23;20.50;;;5.63;;
31043;SDS011;17710;52.520;13.352;2023-07-02T10:14:51;14.32;;;5.90;;
31043;SDS011;17710;52.520;13.352;2023-07-02T10:17:25;15.45;;;5.57;;
31043;SDS011;17710;52.520;13.352;2023-07-02T10:19:53;11.35;;;5.35;;
31043;SDS011;17710;52.520;13.352;2023-07-02T10:22:20;12.75;;;4.30;;
31043;SDS011;17710;52.520;13.352;2023-07-02T10:24:51;12.68;;;5.03;;
31043;SDS011;17710;52.520;13.352;2023-07-02T10:27:20;12.13;;;5.28;;
31043;SDS011;17710;52.520;13.352;2023-07-02T10:29:50;9.82;;;4.97;;
31043;SDS011;17710;52.520;13.352;2023-07-02T10:32:25;10.90;;;5.47;;
31043;SDS011;17710;52.520;13.352;2023-07-02T10:34:53;14.73;;;5.40;;
31043;SDS011;17710;52.520;13.352;2023-07-02T10:37:19;14.50;;;4.70;;
31043;SDS011;17710;52.520;13.352;2023-07-02T10:39:46;11.23;;;4.93;;
31043;SDS011;17710;52.520;13.352;2023-07-02T10:42:13;13.75;;;5.30;;
31043;SDS011;17710;52.520;13.352;2023-07-02T10:44:50;14.43;;;5.70;;
31043;SDS011;17710;52.520;13.352;2023-07-02T10:47:17;12.63;;;5.90;;
31043;SDS011;17710;52.520;13.352;2023-07-02T10:49:44;12.13;;;5.53;;
31043;SDS011;17710;52.520;13.352;2023-07-02T10:52:11;13.95;;;6.18;;
31043;SDS011;17710;52.520;13.352;2023-07-02T10:54:39;14.30;;;5.40;;
31043;SDS011;17710;52.520;13.352;2023-07-02T10:57:06;11.85;;;6.05;;
31043;SDS011;17710;52.520;13.352;2023-07-02T10:59:33;14.23;;;5.90;;
31043;SDS011;17710;52.520;13.352;2023-07-02T11:02:01;14.68;;;5.68;;
31043;SDS011;17710;52.520;13.352;2023-07-02T11:04:28;16.48;;;5.97;;
31043;SDS011;17710;52.520;13.352;2023-07-02T11:06:55;11.90;;;5.97;;
31043;SDS011;17710;52.520;13.352;2023-07-02T11:09:21;16.02;;;5.80;;
31043;SDS011;17710;52.520;13.352;2023-07-02T11:11:50;14.15;;;6.28;;
31043;SDS011;17710;52.520;13.352;2023-07-02T11:14:26;11.90;;;6.53;;
31043;SDS011;17710;52.520;13.352;2023-07-02T11:16:53;19.48;;;6.00;;
31043;SDS011;17710;52.520;13.352;2023-07-02T11:19:22;22.05;;;5.60;;
31043;SDS011;17710;52.520;13.352;2023-07-02T11:21:51;13.40;;;5.93;;
31043;SDS011;17710;52.520;13.352;2023-07-02T11:24:27;17.98;;;6.15;;
31043;SDS011;17710;52.520;13.352;2023-07-02T11:26:55;27.73;;;6.18;;
31043;SDS011;17710;52.520;13.352;2023-07-02T11:29:21;11.35;;;5.82;;
31043;SDS011;17710;52.520;13.352;2023-07-02T11:31:48;20.08;;;6.60;;
31043;SDS011;17710;52.520;13.352;2023-07-02T11:34:15;15.65;;;6.50;;
31043;SDS011;17710;52.520;13.352;2023-07-02T11:36:44;16.92;;;6.47;;
31043;SDS011;17710;52.520;13.352;2023-07-02T11:39:11;15.50;;;6.97;;
31043;SDS011;17710;52.520;13.352;2023-07-02T11:41:39;19.20;;;5.68;;
31043;SDS011;17710;52.520;13.352;2023-07-02T11:44:06;14.15;;;5.60;;
31043;SDS011;17710;52.520;13.352;2023-07-02T11:46:33;14.88;;;5.60;;
31043;SDS011;17710;52.520;13.352;2023-07-02T11:48:59;13.65;;;5.68;;
31043;SDS011;17710;52.520;13.352;2023-07-02T11:51:26;14.32;;;5.82;;
31043;SDS011;17710;52.520;13.352;2023-07-02T11:53:54;11.85;;;5.80;;
31043;SDS011;17710;52.520;13.352;2023-07-02T11:56:20;14.68;;;5.70;;
31043;SDS011;17710;52.520;13.352;2023-07-02T11:58:46;24.65;;;6.03;;
31043;SDS011;17710;52.520;13.352;2023-07-02T12:01:13;17.85;;;7.43;;
31043;SDS011;17710;52.520;13.352;2023-07-02T12:03:39;21.20;;;5.65;;
31043;SDS011;17710;52.520;13.352;2023-07-02T12:06:06;13.98;;;5.65;;
31043;SDS011;17710;52.520;13.352;2023-07-02T12:08:32;16.15;;;5.80;;
31043;SDS011;17710;52.520;13.352;2023-07-02T12:10:59;18.88;;;5.95;;
31043;SDS011;17710;52.520;13.352;2023-07-02T12:13:26;13.68;;;5.38;;
31043;SDS011;17710;52.520;13.352;2023-07-02T12:15:52;13.43;;;5.78;;
31043;SDS011;17710;52.520;13.352;2023-07-02T12:18:18;14.02;;;6.25;;
31043;SDS011;17710;52.520;13.352;2023-07-02T12:20:45;16.33;;;6.22;;
31043;SDS011;17710;52.520;13.352;2023-07-02T12:23:11;13.50;;;6.45;;
31043;SDS011;17710;52.520;13.352;2023-07-02T12:25:38;16.00;;;5.85;;
31043;SDS011;17710;52.520;13.352;2023-07-02T12:28:06;13.18;;;5.60;;
31043;SDS011;17710;52.520;13.352;2023-07-02T12:30:32;17.33;;;6.40;;
31043;SDS011;17710;52.520;13.352;2023-07-02T12:32:59;11.43;;;5.78;;
31043;SDS011;17710;52.520;13.352;2023-07-02T12:35:25;22.35;;;6.38;;
31043;SDS011;17710;52.520;13.352;2023-07-02T12:37:52;14.60;;;5.70;;
31043;SDS011;17710;52.520;13.352;2023-07-02T12:40:19;14.82;;;6.57;;
31043;SDS011;17710;52.520;13.352;2023-07-02T12:42:46;14.27;;;5.50;;
31043;SDS011;17710;52.520;13.352;2023-07-02T12:45:15;11.73;;;5.40;;
31043;SDS011;17710;52.520;13.352;2023-07-02T12:47:42;17.20;;;6.70;;
31043;SDS011;17710;52.520;13.352;2023-07-02T12:50:09;14.20;;;5.80;;
31043;SDS011;17710;52.520;13.352;2023-07-02T12:52:36;14.20;;;6.40;;
31043;SDS011;17710;52.520;13.352;2023-07-02T12:55:03;21.60;;;6.80;;
31043;SDS011;17710;52.520;13.352;2023-07-02T12:57:30;17.83;;;6.65;;
31043;SDS011;17710;52.520;13.352;2023-07-02T12:59:56;16.90;;;6.90;;
31043;SDS011;17710;52.520;13.352;2023-07-02T13:02:24;14.07;;;6.43;;
31043;SDS011;17710;52.520;13.352;2023-07-02T13:04:50;17.38;;;7.43;;
31043;SDS011;17710;52.520;13.352;2023-07-02T13:07:17;21.02;;;7.15;;
31043;SDS011;17710;52.520;13.352;2023-07-02T13:09:44;18.63;;;7.25;;
31043;SDS011;17710;52.520;13.352;2023-07-02T13:12:10;19.70;;;6.32;;
31043;SDS011;17710;52.520;13.352;2023-07-02T13:14:37;19.92;;;6.20;;
31043;SDS011;17710;52.520;13.352;2023-07-02T13:17:03;20.40;;;6.05;;
31043;SDS011;17710;52.520;13.352;2023-07-02T13:19:32;14.40;;;6.75;;
31043;SDS011;17710;52.520;13.352;2023-07-02T13:21:59;15.18;;;6.43;;
31043;SDS011;17710;52.520;13.352;2023-07-02T13:24:27;16.45;;;7.28;;
31043;SDS011;17710;52.520;13.352;2023-07-02T13:26:59;13.85;;;6.05;;
31043;SDS011;17710;52.520;13.352;2023-07-02T13:29:25;17.35;;;6.65;;
31043;SDS011;17710;52.520;13.352;2023-07-02T13:31:51;13.35;;;6.78;;
31043;SDS011;17710;52.520;13.352;2023-07-02T13:34:18;12.13;;;7.05;;
31043;SDS011;17710;52.520;13.352;2023-07-02T13:36:45;10.65;;;6.55;;
31043;SDS011;17710;52.520;13.352;2023-07-02T13:39:12;13.55;;;6.57;;
31043;SDS011;17710;52.520;13.352;2023-07-02T13:41:38;18.27;;;7.13;;
31043;SDS011;17710;52.520;13.352;2023-07-02T13:44:04;20.85;;;6.78;;
31043;SDS011;17710;52.520;13.352;2023-07-02T13:46:31;21.27;;;7.07;;
31043;SDS011;17710;52.520;13.352;2023-07-02T13:48:57;12.70;;;6.13;;
31043;SDS011;17710;52.520;13.352;2023-07-02T13:51:23;13.48;;;6.88;;
31043;SDS011;17710;52.520;13.352;2023-07-02T13:53:51;17.40;;;6.80;;
31043;SDS011;17710;52.520;13.352;2023-07-02T13:56:17;14.48;;;6.65;;
31043;SDS011;17710;52.520;13.352;2023-07-02T13:58:59;12.43;;;6.18;;
31043;SDS011;17710;52.520;13.352;2023-07-02T14:01:26;13.13;;;6.20;;
31043;SDS011;17710;52.520;13.352;2023-07-02T14:03:53;14.07;;;6.13;;
31043;SDS011;17710;52.520;13.352;2023-07-02T14:06:19;17.70;;;6.82;;
31043;SDS011;17710;52.520;13.352;2023-07-02T14:08:46;14.25;;;7.00;;
31043;SDS011;17710;52.520;13.352;2023-07-02T14:11:12;14.98;;;6.55;;
31043;SDS011;17710;52.520;13.352;2023-07-02T14:13:39;12.38;;;6.18;;
31043;SDS011;17710;52.520;13.352;2023-07-02T14:16:06;15.13;;;7.00;;
31043;SDS011;17710;52.520;13.352;2023-07-02T14:18:33;12.25;;;5.88;;
31043;SDS011;17710;52.520;13.352;2023-07-02T14:20:59;9.98;;;5.97;;
31043;SDS011;17710;52.520;13.352;2023-07-02T14:23:28;9.90;;;6.07;;
31043;SDS011;17710;52.520;13.352;2023-07-02T14:25:54;14.10;;;6.60;;
31043;SDS011;17710;52.520;13.352;2023-07-02T14:28:21;13.77;;;6.47;;
31043;SDS011;17710;52.520;13.352;2023-07-02T14:30:54;13.98;;;6.88;;